Time;durP1;ratioP1;P1;durP2;ratioP2;P2;SDS_P1;SDS_P2;PMS_P1;PMS_P2;Temp;Humidity;BMP_temperature;BMP_pressure;BME280_temperature;BME280_humidity;BME280_pressure;Samples;Min_cycle;Max_cycle;Signal;HPM_P1;HPM_P2
2021/09/09 00:00:09;;;;;;;;;;;20.30;99.90;;;;;;5116684;28;19931;-82
2021/09/09 00:02:40;;;;;;;;;;;20.30;99.90;;;;;;5116672;28;19934;-82
2021/09/09 00:05:09;;;;;;;;;;;20.20;99.90;;;;;;5116948;28;19923;-82
2021/09/09 00:07:37;;;;;;;;;;;20.20;99.90;;;;;;5116451;28;19924;-82
2021/09/09 00:10:05;;;;;;;;;;;20.20;99.90;;;;;;5116575;28;19935;-82
2021/09/09 00:12:35;;;;;;;;;;;20.20;99.90;;;;;;5116580;28;19924;-82
2021/09/09 00:15:04;;;;;;;;;;;20.10;99.90;;;;;;5116410;28;20409;-82
2021/09/09 00:17:34;;;;;;;;;;;20.10;99.90;;;;;;5116687;28;19923;-82
2021/09/09 00:20:02;;;;;;;;;;;20.10;99.90;;;;;;5116548;27;19923;-81
2021/09/09 00:22:30;;;;;;;;;;;20.00;99.90;;;;;;5116550;28;20026;-82
2021/09/09 00:24:59;;;;;;;;;;;20.00;99.90;;;;;;5116720;28;19923;-83
2021/09/09 00:27:27;;;;;;;;;;;20.10;99.90;;;;;;5117544;28;20366;-81
2021/09/09 00:29:56;;;;;;;;;;;20.00;99.90;;;;;;5116669;28;19927;-89
2021/09/09 00:32:25;;;;;;;;;;;20.00;99.90;;;;;;5116670;28;19924;-82
2021/09/09 00:34:53;;;;;;;;;;;20.00;99.90;;;;;;5115402;28;20343;-81
2021/09/09 00:37:21;;;;;;;;;;;20.50;99.90;;;;;;5115900;28;19930;-81
2021/09/09 00:39:48;;;;;;;;;;;19.90;99.90;;;;;;5115869;28;19924;-81
2021/09/09 00:42:19;;;;;;;;;;;19.90;99.90;;;;;;5115974;28;19935;-81
2021/09/09 00:44:47;;;;;;;;;;;19.90;99.90;;;;;;5115854;28;20305;-80
2021/09/09 00:47:16;;;;;;;;;;;19.80;99.90;;;;;;5115848;28;19924;-80
2021/09/09 00:49:45;;;;;;;;;;;19.80;99.90;;;;;;5115904;28;19924;-81
2021/09/09 00:52:12;;;;;;;;;;;19.70;99.90;;;;;;5115471;28;19924;-81
2021/09/09 00:54:40;;;;;;;;;;;19.60;99.90;;;;;;5115695;28;20220;-82
2021/09/09 00:57:09;;;;;;;;;;;19.50;99.90;;;;;;5115990;28;19924;-81
2021/09/09 00:59:37;;;;;;;;;;;19.40;99.90;;;;;;5115939;28;19931;-81
2021/09/09 01:02:05;;;;;;;;;;;19.30;99.90;;;;;;5115703;28;19935;-81
2021/09/09 01:04:33;;;;;;;;;;;19.30;99.90;;;;;;5115730;28;19924;-81
2021/09/09 01:07:01;;;;;;;;;;;19.30;99.90;;;;;;5115707;28;20339;-80
2021/09/09 01:09:30;;;;;;;;;;;19.30;99.90;;;;;;5115596;28;19939;-81
2021/09/09 01:11:58;;;;;;;;;;;19.30;99.90;;;;;;5115816;28;19924;-81
2021/09/09 01:14:26;;;;;;;;;;;19.30;99.90;;;;;;5115593;28;19923;-81
2021/09/09 01:16:55;;;;;;;;;;;19.20;99.90;;;;;;5115522;28;19966;-80
2021/09/09 01:19:24;;;;;;;;;;;19.20;99.90;;;;;;5115529;28;20275;-81
2021/09/09 01:21:54;;;;;;;;;;;19.20;99.90;;;;;;5115498;28;20344;-80
2021/09/09 01:24:26;;;;;;;;;;;19.20;99.90;;;;;;5115188;28;20251;-80
2021/09/09 01:26:55;;;;;;;;;;;19.20;99.90;;;;;;5115823;28;20269;-80
2021/09/09 01:29:23;;;;;;;;;;;19.20;99.90;;;;;;5115387;28;20355;-81
2021/09/09 01:31:53;;;;;;;;;;;19.10;99.90;;;;;;5115469;28;19949;-81
2021/09/09 01:34:21;;;;;;;;;;;19.20;99.90;;;;;;5115469;28;19924;-81
2021/09/09 01:36:52;;;;;;;;;;;19.20;99.90;;;;;;5115455;28;19924;-80
2021/09/09 01:39:20;;;;;;;;;;;19.20;99.90;;;;;;5115206;28;20444;-80
2021/09/09 01:41:51;;;;;;;;;;;19.20;99.90;;;;;;5115345;28;20244;-80
2021/09/09 01:44:17;;;;;;;;;;;19.20;99.90;;;;;;5115288;28;19927;-80
2021/09/09 01:46:48;;;;;;;;;;;19.20;99.90;;;;;;5116288;28;20000;-81
2021/09/09 01:49:26;;;;;;;;;;;19.20;99.90;;;;;;5119472;28;19924;-81
2021/09/09 01:51:54;;;;;;;;;;;19.20;99.90;;;;;;5119409;28;20263;-80
2021/09/09 01:54:24;;;;;;;;;;;19.20;99.90;;;;;;5119369;28;19924;-80
2021/09/09 01:56:56;;;;;;;;;;;19.20;99.90;;;;;;5119240;28;19923;-80
2021/09/09 01:59:24;;;;;;;;;;;19.20;99.90;;;;;;5119485;28;19924;-81
2021/09/09 02:01:52;;;;;;;;;;;19.20;99.90;;;;;;5119001;28;20374;-82
2021/09/09 02:04:20;;;;;;;;;;;19.10;99.90;;;;;;5119138;28;19950;-82
2021/09/09 02:06:47;;;;;;;;;;;19.10;99.90;;;;;;5119059;28;19931;-82
2021/09/09 02:09:15;;;;;;;;;;;19.10;99.90;;;;;;5119180;28;19924;-81
2021/09/09 02:11:43;;;;;;;;;;;19.10;99.90;;;;;;5118972;28;19927;-81
2021/09/09 02:14:11;;;;;;;;;;;19.00;99.90;;;;;;5118747;28;20259;-82
2021/09/09 02:16:38;;;;;;;;;;;19.10;99.90;;;;;;5118949;28;19935;-79
2021/09/09 02:19:05;;;;;;;;;;;19.00;99.90;;;;;;5118789;28;19924;-81
2021/09/09 02:21:33;;;;;;;;;;;19.00;99.90;;;;;;5118404;28;19935;-82
2021/09/09 02:23:59;;;;;;;;;;;19.00;99.90;;;;;;5118683;28;19924;-76
2021/09/09 02:26:26;;;;;;;;;;;19.00;99.90;;;;;;5118675;28;19923;-76
2021/09/09 02:28:53;;;;;;;;;;;19.00;99.90;;;;;;5118593;28;19943;-76
2021/09/09 02:31:21;;;;;;;;;;;19.00;99.90;;;;;;5118527;28;19927;-76
2021/09/09 02:33:50;;;;;;;;;;;19.00;99.90;;;;;;5118575;28;19924;-76
2021/09/09 02:36:19;;;;;;;;;;;18.90;99.90;;;;;;5118299;27;19923;-76
2021/09/09 02:38:47;;;;;;;;;;;18.90;99.90;;;;;;5118449;28;19931;-76
2021/09/09 02:41:15;;;;;;;;;;;18.90;99.90;;;;;;5118008;28;20262;-76
2021/09/09 02:43:43;;;;;;;;;;;18.90;99.90;;;;;;5118181;28;20373;-75
2021/09/09 02:46:12;;;;;;;;;;;18.90;99.90;;;;;;5118135;28;19927;-75
2021/09/09 02:48:42;;;;;;;;;;;18.90;99.90;;;;;;5118181;28;19934;-76
2021/09/09 02:51:10;;;;;;;;;;;18.90;99.90;;;;;;5118163;28;20366;-75
2021/09/09 02:53:38;;;;;;;;;;;18.90;99.90;;;;;;5118171;28;19924;-76
2021/09/09 02:56:05;;;;;;;;;;;18.90;99.90;;;;;;5118127;28;19924;-76
2021/09/09 02:58:34;;;;;;;;;;;18.90;99.90;;;;;;5116905;28;19924;-76
2021/09/09 03:01:02;;;;;;;;;;;18.80;99.90;;;;;;5118146;28;19928;-76
2021/09/09 03:03:30;;;;;;;;;;;18.80;99.90;;;;;;5117849;28;20354;-76
2021/09/09 03:06:00;;;;;;;;;;;18.80;99.90;;;;;;5117848;28;19923;-76
2021/09/09 03:08:29;;;;;;;;;;;18.80;99.90;;;;;;5117675;28;19924;-76
2021/09/09 03:10:56;;;;;;;;;;;18.70;99.90;;;;;;5117884;28;20342;-76
2021/09/09 03:13:24;;;;;;;;;;;18.60;99.90;;;;;;5117646;28;20362;-76
2021/09/09 03:15:51;;;;;;;;;;;18.70;99.90;;;;;;5117845;28;19924;-76
2021/09/09 03:18:22;;;;;;;;;;;18.60;99.90;;;;;;5117466;28;19924;-76
2021/09/09 03:20:52;;;;;;;;;;;18.60;99.90;;;;;;5117571;27;19924;-75
2021/09/09 03:23:23;;;;;;;;;;;18.60;99.90;;;;;;5117510;28;20221;-76
2021/09/09 03:25:51;;;;;;;;;;;18.60;99.90;;;;;;5117572;28;19935;-76
2021/09/09 03:28:21;;;;;;;;;;;18.50;99.90;;;;;;5117246;28;19924;-76
2021/09/09 03:30:49;;;;;;;;;;;18.50;99.90;;;;;;5117359;28;19923;-76
2021/09/09 03:33:17;;;;;;;;;;;18.50;99.90;;;;;;5117364;28;19924;-75
2021/09/09 03:35:45;;;;;;;;;;;18.50;99.90;;;;;;5117206;28;19923;-75
2021/09/09 03:38:13;;;;;;;;;;;18.50;99.90;;;;;;5117306;28;19924;-75
2021/09/09 03:40:41;;;;;;;;;;;18.50;99.90;;;;;;5116728;28;19924;-75
2021/09/09 03:43:10;;;;;;;;;;;18.50;99.90;;;;;;5117320;27;19924;-75
2021/09/09 03:45:37;;;;;;;;;;;18.40;99.90;;;;;;5116951;28;19923;-75
2021/09/09 03:48:04;;;;;;;;;;;18.40;99.90;;;;;;5116915;28;19923;-75
2021/09/09 03:50:31;;;;;;;;;;;18.40;99.90;;;;;;5116858;28;19949;-74
2021/09/09 03:52:58;;;;;;;;;;;18.30;99.90;;;;;;5117123;28;19989;-75
2021/09/09 03:55:25;;;;;;;;;;;18.30;99.90;;;;;;5116736;28;19946;-75
2021/09/09 03:57:53;;;;;;;;;;;18.30;99.90;;;;;;5116788;28;19928;-75
2021/09/09 04:00:20;;;;;;;;;;;18.30;99.90;;;;;;5116166;28;19924;-75
2021/09/09 04:02:47;;;;;;;;;;;18.30;99.90;;;;;;5116780;28;20271;-75
2021/09/09 04:05:14;;;;;;;;;;;18.30;99.90;;;;;;5116561;28;19938;-75
2021/09/09 04:07:41;;;;;;;;;;;18.30;99.90;;;;;;5116571;28;19934;-75
2021/09/09 04:10:08;;;;;;;;;;;18.30;99.90;;;;;;5116511;28;19932;-75
2021/09/09 04:12:35;;;;;;;;;;;18.30;99.90;;;;;;5116586;28;19924;-75
2021/09/09 04:15:03;;;;;;;;;;;18.20;99.90;;;;;;5116408;28;19923;-75
2021/09/09 04:17:30;;;;;;;;;;;18.20;99.90;;;;;;5116506;27;19927;-75
2021/09/09 04:19:57;;;;;;;;;;;18.20;99.90;;;;;;5116564;28;19985;-75
2021/09/09 04:22:24;;;;;;;;;;;18.20;99.90;;;;;;5116523;28;19935;-75
2021/09/09 04:24:50;;;;;;;;;;;18.10;99.90;;;;;;5116322;28;20291;-75
2021/09/09 04:27:19;;;;;;;;;;;18.10;99.90;;;;;;5116016;28;20365;-76
2021/09/09 04:29:51;;;;;;;;;;;18.10;99.90;;;;;;5116376;28;19924;-75
2021/09/09 04:32:20;;;;;;;;;;;18.00;99.90;;;;;;5116087;28;19935;-75
2021/09/09 04:34:49;;;;;;;;;;;17.90;99.90;;;;;;5116104;28;19935;-75
2021/09/09 04:37:17;;;;;;;;;;;17.90;99.90;;;;;;5116181;28;19924;-75
2021/09/09 04:39:45;;;;;;;;;;;17.90;99.90;;;;;;5115837;28;19930;-76
2021/09/09 04:42:12;;;;;;;;;;;17.90;99.90;;;;;;5116082;28;19928;-75
2021/09/09 04:44:40;;;;;;;;;;;17.90;99.90;;;;;;5115911;28;19934;-75
2021/09/09 04:47:07;;;;;;;;;;;17.90;99.90;;;;;;5115311;28;19934;-75
2021/09/09 04:49:35;;;;;;;;;;;17.90;99.90;;;;;;5116292;28;19924;-75
2021/09/09 04:52:02;;;;;;;;;;;17.80;99.90;;;;;;5115668;28;20389;-75
2021/09/09 04:54:30;;;;;;;;;;;17.80;99.90;;;;;;5115420;28;19923;-75
2021/09/09 04:56:56;;;;;;;;;;;17.80;99.90;;;;;;5115169;28;20355;-75
2021/09/09 04:59:23;;;;;;;;;;;17.70;99.90;;;;;;5115439;28;20241;-75
2021/09/09 05:01:51;;;;;;;;;;;17.70;99.90;;;;;;5114823;28;19928;-75
2021/09/09 05:04:20;;;;;;;;;;;17.70;99.90;;;;;;5115774;28;19924;-75
2021/09/09 05:06:49;;;;;;;;;;;17.70;99.90;;;;;;5115702;28;19924;-75
2021/09/09 05:09:18;;;;;;;;;;;17.70;99.90;;;;;;5115638;28;20040;-76
2021/09/09 05:11:46;;;;;;;;;;;17.70;99.90;;;;;;5115860;28;19924;-76
2021/09/09 05:14:14;;;;;;;;;;;17.70;99.90;;;;;;5115563;28;19928;-76
2021/09/09 05:16:41;;;;;;;;;;;17.80;99.90;;;;;;5115767;28;19930;-76
2021/09/09 05:19:08;;;;;;;;;;;17.80;99.90;;;;;;5115472;28;20366;-76
2021/09/09 05:21:35;;;;;;;;;;;17.80;99.90;;;;;;5116201;28;19984;-76
2021/09/09 05:24:04;;;;;;;;;;;17.90;99.90;;;;;;5119798;28;19923;-76
2021/09/09 05:26:31;;;;;;;;;;;17.80;99.90;;;;;;5119666;28;19923;-76
2021/09/09 05:28:57;;;;;;;;;;;17.90;99.90;;;;;;5118748;28;19932;-76
2021/09/09 05:31:24;;;;;;;;;;;17.80;99.90;;;;;;5119728;28;19923;-76
2021/09/09 05:33:51;;;;;;;;;;;17.80;99.90;;;;;;5119656;28;19924;-76
2021/09/09 05:36:18;;;;;;;;;;;17.80;99.90;;;;;;5119504;28;19923;-76
2021/09/09 05:38:45;;;;;;;;;;;17.80;99.90;;;;;;5119555;28;19931;-76
2021/09/09 05:41:13;;;;;;;;;;;17.90;99.90;;;;;;5119656;28;20328;-76
2021/09/09 05:43:40;;;;;;;;;;;17.90;99.90;;;;;;5119478;28;19923;-76
2021/09/09 05:46:07;;;;;;;;;;;17.90;99.90;;;;;;5119468;28;19924;-76
2021/09/09 05:48:33;;;;;;;;;;;17.90;99.90;;;;;;5119251;28;20252;-76
2021/09/09 05:51:00;;;;;;;;;;;17.90;99.90;;;;;;5119322;28;19924;-76
2021/09/09 05:53:27;;;;;;;;;;;17.90;99.90;;;;;;5119317;28;19930;-76
2021/09/09 05:55:54;;;;;;;;;;;18.00;99.90;;;;;;5119189;28;19940;-76
2021/09/09 05:58:22;;;;;;;;;;;18.00;99.90;;;;;;5119136;28;19934;-76
2021/09/09 06:00:49;;;;;;;;;;;18.00;99.90;;;;;;5119058;28;19941;-76
2021/09/09 06:03:16;;;;;;;;;;;18.00;99.90;;;;;;5119160;28;19934;-76
2021/09/09 06:05:43;;;;;;;;;;;18.00;99.90;;;;;;5118971;28;19923;-76
2021/09/09 06:08:10;;;;;;;;;;;18.00;99.90;;;;;;5119092;28;20263;-76
2021/09/09 06:10:37;;;;;;;;;;;18.00;99.90;;;;;;5118800;28;19931;-76
2021/09/09 06:13:03;;;;;;;;;;;18.10;99.90;;;;;;5118790;28;19934;-76
2021/09/09 06:15:32;;;;;;;;;;;18.10;99.90;;;;;;5118788;28;19927;-76
2021/09/09 06:17:59;;;;;;;;;;;18.10;99.90;;;;;;5118878;28;19924;-76
2021/09/09 06:20:25;;;;;;;;;;;18.10;99.90;;;;;;5118762;28;20349;-76
2021/09/09 06:22:52;;;;;;;;;;;18.10;99.90;;;;;;5118685;27;19925;-76
2021/09/09 06:25:19;;;;;;;;;;;18.10;99.90;;;;;;5118688;28;19931;-76
2021/09/09 06:27:46;;;;;;;;;;;18.20;99.90;;;;;;5118527;28;19950;-76
2021/09/09 06:30:13;;;;;;;;;;;18.20;99.90;;;;;;5118481;28;19939;-76
2021/09/09 06:32:41;;;;;;;;;;;18.30;99.90;;;;;;5118577;28;19924;-76
2021/09/09 06:35:08;;;;;;;;;;;18.30;99.90;;;;;;5118606;28;20297;-76
2021/09/09 06:37:35;;;;;;;;;;;18.30;99.90;;;;;;5118416;28;19924;-76
2021/09/09 06:40:02;;;;;;;;;;;18.30;99.90;;;;;;5118179;28;20343;-75
2021/09/09 06:42:29;;;;;;;;;;;18.40;99.90;;;;;;5118239;28;19930;-75
2021/09/09 06:44:56;;;;;;;;;;;18.40;99.90;;;;;;5118180;28;20299;-76
2021/09/09 06:47:23;;;;;;;;;;;18.40;99.90;;;;;;5118235;28;19934;-76
2021/09/09 06:49:51;;;;;;;;;;;18.40;99.90;;;;;;5118242;28;19923;-76
2021/09/09 06:52:18;;;;;;;;;;;18.50;99.90;;;;;;5118075;28;19935;-76
2021/09/09 06:54:45;;;;;;;;;;;18.40;99.90;;;;;;5118284;28;19924;-76
2021/09/09 06:57:11;;;;;;;;;;;18.50;99.90;;;;;;5118188;28;19924;-76
2021/09/09 06:59:38;;;;;;;;;;;18.60;99.90;;;;;;5118031;28;20348;-76
2021/09/09 07:02:05;;;;;;;;;;;18.80;99.90;;;;;;5117862;28;19924;-76
2021/09/09 07:04:32;;;;;;;;;;;18.90;99.90;;;;;;5117823;28;19930;-76
2021/09/09 07:07:00;;;;;;;;;;;19.00;99.90;;;;;;5117653;28;19924;-76
2021/09/09 07:09:27;;;;;;;;;;;19.10;99.90;;;;;;5117984;28;19924;-76
2021/09/09 07:11:54;;;;;;;;;;;19.10;99.90;;;;;;5117714;28;20347;-76
2021/09/09 07:14:21;;;;;;;;;;;19.20;99.90;;;;;;5117696;28;19923;-76
2021/09/09 07:16:48;;;;;;;;;;;19.20;99.90;;;;;;5117877;28;19934;-76
2021/09/09 07:19:14;;;;;;;;;;;19.20;99.90;;;;;;5117663;28;19946;-76
2021/09/09 07:21:43;;;;;;;;;;;19.20;99.90;;;;;;5117548;28;19950;-76
2021/09/09 07:24:11;;;;;;;;;;;19.20;99.90;;;;;;5117647;28;19924;-76
2021/09/09 07:26:38;;;;;;;;;;;19.20;99.90;;;;;;5117519;28;19924;-76
2021/09/09 07:29:05;;;;;;;;;;;19.20;99.90;;;;;;5117516;28;19927;-76
2021/09/09 07:31:31;;;;;;;;;;;19.30;99.90;;;;;;5117424;28;19927;-77
2021/09/09 07:33:58;;;;;;;;;;;19.30;99.90;;;;;;5117406;28;20397;-77
2021/09/09 07:36:25;;;;;;;;;;;19.40;99.90;;;;;;5117144;28;19928;-77
2021/09/09 07:38:52;;;;;;;;;;;19.40;99.90;;;;;;5117452;28;19923;-77
2021/09/09 07:41:20;;;;;;;;;;;19.50;99.90;;;;;;5117003;28;20378;-77
2021/09/09 07:43:47;;;;;;;;;;;19.70;99.90;;;;;;5117197;28;19923;-77
2021/09/09 07:46:14;;;;;;;;;;;19.90;99.90;;;;;;5116576;28;20375;-77
2021/09/09 07:48:40;;;;;;;;;;;20.00;99.90;;;;;;5117035;28;19923;-77
2021/09/09 07:51:07;;;;;;;;;;;20.10;99.90;;;;;;5117332;28;19928;-77
2021/09/09 07:53:34;;;;;;;;;;;20.10;99.90;;;;;;5116920;28;20406;-77
2021/09/09 07:56:03;;;;;;;;;;;20.20;99.90;;;;;;5116810;28;19924;-77
2021/09/09 07:58:31;;;;;;;;;;;20.20;99.90;;;;;;5117201;28;19927;-77
2021/09/09 08:00:58;;;;;;;;;;;20.20;99.90;;;;;;5116804;28;19931;-77
2021/09/09 08:03:25;;;;;;;;;;;20.20;99.90;;;;;;5116709;28;19927;-77
2021/09/09 08:05:53;;;;;;;;;;;20.20;99.90;;;;;;5116962;28;20032;-77
2021/09/09 08:08:20;;;;;;;;;;;20.20;99.90;;;;;;5116883;28;19924;-77
2021/09/09 08:10:47;;;;;;;;;;;20.20;99.90;;;;;;5116793;28;19935;-77
2021/09/09 08:13:14;;;;;;;;;;;20.30;99.90;;;;;;5116641;28;19934;-77
2021/09/09 08:15:42;;;;;;;;;;;20.20;99.90;;;;;;5116547;28;20271;-77
2021/09/09 08:18:09;;;;;;;;;;;20.30;99.90;;;;;;5116320;28;19924;-77
2021/09/09 08:20:36;;;;;;;;;;;20.30;99.90;;;;;;5116417;28;19924;-77
2021/09/09 08:23:02;;;;;;;;;;;20.40;99.90;;;;;;5116625;28;20255;-77
2021/09/09 08:25:29;;;;;;;;;;;20.40;99.90;;;;;;5116429;28;19923;-77
2021/09/09 08:27:56;;;;;;;;;;;20.40;99.90;;;;;;5116247;28;19934;-77
2021/09/09 08:30:23;;;;;;;;;;;20.40;99.90;;;;;;5116223;28;19942;-77
2021/09/09 08:32:51;;;;;;;;;;;20.40;99.90;;;;;;5116263;28;20378;-77
2021/09/09 08:35:18;;;;;;;;;;;20.50;99.90;;;;;;5116458;28;19923;-77
2021/09/09 08:37:45;;;;;;;;;;;20.60;99.90;;;;;;5116171;28;20351;-77
2021/09/09 08:40:13;;;;;;;;;;;20.70;99.90;;;;;;5115766;28;19934;-77
2021/09/09 08:42:41;;;;;;;;;;;20.90;99.90;;;;;;5116162;28;19923;-77
2021/09/09 08:45:09;;;;;;;;;;;21.00;99.90;;;;;;5115982;28;19935;-76
2021/09/09 08:47:36;;;;;;;;;;;21.10;99.90;;;;;;5115970;28;19931;-77
2021/09/09 08:50:05;;;;;;;;;;;21.20;99.90;;;;;;5116121;28;19923;-77
2021/09/09 08:52:32;;;;;;;;;;;21.20;99.90;;;;;;5115911;28;19934;-77
2021/09/09 08:54:59;;;;;;;;;;;21.20;99.90;;;;;;5116072;28;19923;-77
2021/09/09 08:57:27;;;;;;;;;;;21.10;99.90;;;;;;5115125;28;20270;-77
2021/09/09 08:59:54;;;;;;;;;;;21.00;99.90;;;;;;5115890;28;19935;-77
2021/09/09 09:02:21;;;;;;;;;;;20.90;99.90;;;;;;5115884;28;20259;-77
2021/09/09 09:05:00;;;;;;;;;;;20.80;99.90;;;;;;5115772;28;19972;-77
2021/09/09 09:07:32;;;;;;;;;;;20.70;99.90;;;;;;5115847;28;19924;-77
2021/09/09 09:09:59;;;;;;;;;;;20.60;99.90;;;;;;5115780;28;19924;-77
2021/09/09 09:12:37;;;;;;;;;;;20.60;99.90;;;;;;5115747;28;20351;-77
2021/09/09 09:15:13;;;;;;;;;;;20.50;99.90;;;;;;5115778;28;20340;-77
2021/09/09 09:17:52;;;;;;;;;;;20.50;99.90;;;;;;5115930;28;19924;-77
2021/09/09 09:20:19;;;;;;;;;;;20.60;99.90;;;;;;5115505;28;19924;-77
2021/09/09 09:22:47;;;;;;;;;;;20.60;99.90;;;;;;5115533;28;19935;-77
2021/09/09 09:25:14;;;;;;;;;;;20.70;99.90;;;;;;5115476;28;19930;-77
2021/09/09 09:27:44;;;;;;;;;;;20.70;99.90;;;;;;5115600;28;19924;-77
2021/09/09 09:30:12;;;;;;;;;;;20.70;99.90;;;;;;5115631;28;19931;-77
2021/09/09 09:32:45;;;;;;;;;;;20.80;99.90;;;;;;5115511;28;20241;-77
2021/09/09 09:35:13;;;;;;;;;;;20.80;99.90;;;;;;5115422;28;19928;-77
2021/09/09 09:37:51;;;;;;;;;;;20.90;99.90;;;;;;5115268;28;20259;-77
2021/09/09 09:40:22;;;;;;;;;;;21.00;99.90;;;;;;5115363;28;20243;-77
2021/09/09 09:42:49;;;;;;;;;;;21.00;99.90;;;;;;5115648;28;19924;-77
2021/09/09 09:45:16;;;;;;;;;;;21.10;99.90;;;;;;5115481;28;20374;-77
2021/09/09 09:47:43;;;;;;;;;;;21.10;99.90;;;;;;5115322;28;19923;-77
2021/09/09 09:50:15;;;;;;;;;;;21.10;99.90;;;;;;5115251;28;19924;-77
2021/09/09 09:52:42;;;;;;;;;;;21.00;99.90;;;;;;5115362;28;20383;-77
2021/09/09 09:55:11;;;;;;;;;;;21.00;99.90;;;;;;5115194;28;19923;-77
2021/09/09 09:57:50;;;;;;;;;;;20.90;99.90;;;;;;5115309;28;19934;-77
2021/09/09 10:00:17;;;;;;;;;;;20.90;99.90;;;;;;5115252;28;19923;-77
2021/09/09 10:02:44;;;;;;;;;;;20.80;99.90;;;;;;5115108;28;19935;-77
2021/09/09 10:05:11;;;;;;;;;;;20.80;99.90;;;;;;5115443;28;19923;-77
2021/09/09 10:07:38;;;;;;;;;;;20.70;99.90;;;;;;5115800;28;19924;-77
2021/09/09 10:10:05;;;;;;;;;;;20.60;99.90;;;;;;5119073;28;19924;-77
2021/09/09 10:12:33;;;;;;;;;;;20.60;99.90;;;;;;5118978;28;19924;-77
2021/09/09 10:15:00;;;;;;;;;;;20.60;99.90;;;;;;5119011;28;19924;-77
2021/09/09 10:17:27;;;;;;;;;;;20.50;99.90;;;;;;5118864;28;19924;-77
2021/09/09 12:40:39;;;;;;;;;;;22.80;99.90;;;;;;5115874;28;20397;-76
2021/09/09 12:43:25;;;;;;;;;;;22.80;99.90;;;;;;5116139;28;19924;-76
2021/09/09 12:45:56;;;;;;;;;;;22.80;99.90;;;;;;5115876;28;19934;-76
2021/09/09 12:48:25;;;;;;;;;;;22.90;99.90;;;;;;5115911;28;20010;-76
2021/09/09 12:50:56;;;;;;;;;;;23.00;99.90;;;;;;5116060;28;20282;-76
2021/09/09 12:53:27;;;;;;;;;;;23.00;99.90;;;;;;5115884;28;19923;-76
2021/09/09 12:55:58;;;;;;;;;;;23.00;99.90;;;;;;5111062;28;19928;-76
2021/09/09 12:58:26;;;;;;;;;;;22.80;99.90;;;;;;5114013;28;20347;-76
2021/09/09 13:00:58;;;;;;;;;;;22.80;99.90;;;;;;5115761;28;20014;-76
2021/09/09 13:03:27;;;;;;;;;;;22.70;99.90;;;;;;5115661;28;20371;-76
2021/09/09 13:05:56;;;;;;;;;;;22.60;99.90;;;;;;5115641;28;19971;-76
2021/09/09 13:08:24;;;;;;;;;;;22.60;99.90;;;;;;5115473;28;19924;-76
2021/09/09 13:10:51;;;;;;;;;;;22.50;99.90;;;;;;5115453;28;19923;-76
2021/09/09 13:13:18;;;;;;;;;;;22.40;99.90;;;;;;5115896;28;20244;-76
2021/09/09 13:15:45;;;;;;;;;;;22.30;99.90;;;;;;5115264;28;20352;-76
2021/09/09 13:18:13;;;;;;;;;;;22.30;99.90;;;;;;5114967;28;19934;-76
2021/09/09 13:20:40;;;;;;;;;;;22.20;99.90;;;;;;5115153;28;19924;-76
2021/09/09 13:23:07;;;;;;;;;;;22.20;99.90;;;;;;5115563;28;19928;-77
2021/09/09 13:25:35;;;;;;;;;;;22.20;99.90;;;;;;5115373;28;19930;-76
2021/09/09 13:28:02;;;;;;;;;;;22.10;99.90;;;;;;5115534;28;19924;-77
2021/09/09 13:30:32;;;;;;;;;;;22.10;99.90;;;;;;5115377;28;20043;-76
2021/09/09 13:33:00;;;;;;;;;;;22.10;99.90;;;;;;5115365;28;20000;-76
2021/09/09 13:35:31;;;;;;;;;;;22.00;99.90;;;;;;5115389;28;20400;-77
2021/09/09 13:37:59;;;;;;;;;;;21.90;99.90;;;;;;5115557;28;19984;-77
2021/09/09 13:40:27;;;;;;;;;;;21.80;99.90;;;;;;5115164;28;19923;-77
2021/09/09 13:42:55;;;;;;;;;;;21.80;99.90;;;;;;5116615;28;19973;-77
2021/09/09 13:45:24;;;;;;;;;;;21.60;99.90;;;;;;5119449;28;19924;-77
2021/09/09 13:47:52;;;;;;;;;;;21.40;99.90;;;;;;5119592;28;19927;-76
2021/09/09 13:50:20;;;;;;;;;;;21.40;99.90;;;;;;5119443;28;19923;-75
2021/09/09 13:52:54;;;;;;;;;;;21.30;99.90;;;;;;5119223;28;20011;-75
2021/09/09 13:55:23;;;;;;;;;;;21.40;99.90;;;;;;5119198;28;19931;-75
2021/09/09 13:57:51;;;;;;;;;;;21.40;99.90;;;;;;5119165;28;19936;-75
2021/09/09 14:00:19;;;;;;;;;;;21.40;99.90;;;;;;5119277;28;19923;-75
2021/09/09 14:02:47;;;;;;;;;;;21.40;99.90;;;;;;5119241;28;19923;-75
2021/09/09 14:05:16;;;;;;;;;;;21.40;99.90;;;;;;5119046;28;19923;-75
2021/09/09 14:07:47;;;;;;;;;;;21.50;99.90;;;;;;5118845;28;20274;-75
2021/09/09 14:10:17;;;;;;;;;;;21.60;99.90;;;;;;5118989;27;19934;-75
2021/09/09 14:12:45;;;;;;;;;;;21.60;99.90;;;;;;5119075;28;19923;-75
2021/09/09 14:15:13;;;;;;;;;;;21.60;99.90;;;;;;5118814;28;19923;-75
2021/09/09 14:17:41;;;;;;;;;;;21.70;99.90;;;;;;5118694;28;20351;-75
2021/09/09 14:20:10;;;;;;;;;;;21.70;99.90;;;;;;5118690;28;19931;-75
2021/09/09 14:22:37;;;;;;;;;;;21.80;99.90;;;;;;5118704;28;19923;-76
2021/09/09 14:25:06;;;;;;;;;;;21.80;99.90;;;;;;5118550;28;19924;-75
2021/09/09 14:27:34;;;;;;;;;;;21.80;99.90;;;;;;5118805;28;20348;-75
2021/09/09 14:30:01;;;;;;;;;;;21.70;99.90;;;;;;5118697;28;19934;-76
2021/09/09 14:32:28;;;;;;;;;;;21.70;99.90;;;;;;5118642;28;19928;-76
2021/09/09 14:34:55;;;;;;;;;;;21.70;99.90;;;;;;5118430;28;19945;-76
2021/09/09 14:37:26;;;;;;;;;;;21.70;99.90;;;;;;5118356;28;20251;-76
2021/09/09 14:39:54;;;;;;;;;;;21.70;99.90;;;;;;5118200;28;19989;-76
2021/09/09 14:42:22;;;;;;;;;;;21.80;99.90;;;;;;5118513;28;20259;-76
2021/09/09 14:44:51;;;;;;;;;;;21.80;99.90;;;;;;5118436;28;19924;-76
2021/09/09 14:47:20;;;;;;;;;;;21.90;99.90;;;;;;5117883;28;19927;-76
2021/09/09 14:49:46;;;;;;;;;;;21.90;99.90;;;;;;5115765;28;19928;-76
2021/09/09 14:52:15;;;;;;;;;;;22.00;99.90;;;;;;5118154;28;20355;-76
2021/09/09 14:54:43;;;;;;;;;;;22.10;99.90;;;;;;5116819;28;19934;-76
2021/09/09 14:57:11;;;;;;;;;;;22.20;99.90;;;;;;5118106;28;19998;-76
2021/09/09 14:59:42;;;;;;;;;;;22.30;99.90;;;;;;5117964;28;19999;-76
2021/09/09 15:02:25;;;;;;;;;;;22.40;99.90;;;;;;5118022;28;20403;-76
2021/09/09 15:04:53;;;;;;;;;;;22.50;99.90;;;;;;5117666;28;19934;-77
2021/09/09 15:07:21;;;;;;;;;;;22.60;99.90;;;;;;5118037;28;19924;-76
2021/09/09 15:09:49;;;;;;;;;;;22.50;99.90;;;;;;5117921;28;19928;-77
2021/09/09 15:12:17;;;;;;;;;;;22.40;99.90;;;;;;5117856;28;19924;-76
2021/09/09 15:14:46;;;;;;;;;;;22.40;99.90;;;;;;5117666;28;19923;-77
2021/09/09 15:17:15;;;;;;;;;;;22.40;99.90;;;;;;5117757;28;19934;-77
2021/09/09 15:19:43;;;;;;;;;;;22.40;99.90;;;;;;5117726;28;20271;-77
2021/09/09 15:22:11;;;;;;;;;;;22.40;99.90;;;;;;5117744;28;19924;-77
2021/09/09 15:24:38;;;;;;;;;;;22.40;99.90;;;;;;5117623;28;19928;-77
2021/09/09 15:27:06;;;;;;;;;;;22.50;99.90;;;;;;5117464;28;19930;-77
2021/09/09 15:29:37;;;;;;;;;;;22.50;99.90;;;;;;5117370;28;19924;-77
2021/09/09 15:32:06;;;;;;;;;;;22.60;99.90;;;;;;5117709;28;19990;-76
2021/09/09 15:34:39;;;;;;;;;;;22.60;99.90;;;;;;5117568;28;19932;-76
2021/09/09 15:37:07;;;;;;;;;;;22.70;99.90;;;;;;5117436;28;20357;-77
2021/09/09 15:39:36;;;;;;;;;;;22.70;99.90;;;;;;5117086;28;20343;-77
2021/09/09 15:42:05;;;;;;;;;;;22.60;99.90;;;;;;5117284;28;19935;-76
2021/09/09 15:44:35;;;;;;;;;;;22.60;99.90;;;;;;5117236;28;20347;-77
2021/09/09 15:47:04;;;;;;;;;;;22.60;99.90;;;;;;5117330;28;19923;-77
2021/09/09 15:49:32;;;;;;;;;;;22.60;99.90;;;;;;5116956;28;20359;-77
2021/09/09 15:52:00;;;;;;;;;;;22.60;99.90;;;;;;5117072;28;19935;-77
2021/09/09 15:54:28;;;;;;;;;;;22.40;99.90;;;;;;5111350;28;19934;-77
2021/09/09 15:56:55;;;;;;;;;;;23.90;99.90;;;;;;5116378;28;20335;-77
2021/09/09 15:59:22;;;;;;;;;;;22.20;99.90;;;;;;5116895;28;19924;-77
2021/09/09 16:01:48;;;;;;;;;;;21.90;99.90;;;;;;5116775;28;19932;-77
2021/09/09 16:04:15;;;;;;;;;;;21.70;99.90;;;;;;5116760;28;19924;-77
2021/09/09 16:06:48;;;;;;;;;;;21.50;99.90;;;;;;5115738;28;20248;-78
2021/09/09 16:09:18;;;;;;;;;;;21.40;99.90;;;;;;5116286;28;20355;-78
2021/09/09 16:11:45;;;;;;;;;;;21.20;99.90;;;;;;5116917;28;19934;-77
2021/09/09 16:14:11;;;;;;;;;;;20.90;99.90;;;;;;5116463;28;19932;-78
2021/09/09 16:16:38;;;;;;;;;;;20.50;99.90;;;;;;5115783;28;20359;-79
2021/09/09 16:19:05;;;;;;;;;;;20.10;99.90;;;;;;5116434;28;19931;-79
2021/09/09 16:21:32;;;;;;;;;;;19.80;99.90;;;;;;5116404;28;19930;-79
2021/09/09 16:23:59;;;;;;;;;;;19.60;99.90;;;;;;5116213;28;19934;-78
2021/09/09 16:26:27;;;;;;;;;;;19.50;99.90;;;;;;5116544;28;19923;-78
2021/09/09 16:28:54;;;;;;;;;;;19.30;99.90;;;;;;5116269;28;19924;-77
2021/09/09 16:31:21;;;;;;;;;;;19.30;99.90;;;;;;5116320;28;19924;-78
2021/09/09 16:33:49;;;;;;;;;;;19.20;99.90;;;;;;5116249;28;20251;-77
2021/09/09 16:36:16;;;;;;;;;;;19.20;99.90;;;;;;5116336;28;19924;-78
2021/09/09 16:38:43;;;;;;;;;;;19.20;99.90;;;;;;5115934;28;19931;-78
2021/09/09 16:41:10;;;;;;;;;;;19.20;99.90;;;;;;5116485;28;20292;-78